Time;durP1;ratioP1;P1;durP2;ratioP2;P2;SDS_P1;SDS_P2;PMS_P1;PMS_P2;Temp;Humidity;BMP_temperature;BMP_pressure;BME280_temperature;BME280_humidity;BME280_pressure;Samples;Min_cycle;Max_cycle;Signal;HPM_P1;HPM_P2
2022/10/31 00:01:23;;;;;;;48.30;20.08;;;;;;;11.27;89.57;98225.42;1726934;81;20952;-71
2022/10/31 00:03:49;;;;;;;49.58;21.15;;;;;;;11.27;89.50;98231.17;1722553;82;20961;-69
2022/10/31 00:06:19;;;;;;;45.05;20.17;;;;;;;11.28;89.58;98223.18;1715226;82;21415;-70
2022/10/31 00:08:52;;;;;;;44.80;21.55;;;;;;;11.30;89.52;98227.13;1700846;83;21426;-70
2022/10/31 00:11:19;;;;;;;42.85;20.35;;;;;;;11.31;89.52;98228.85;1733884;82;21484;-71
2022/10/31 00:13:45;;;;;;;43.08;20.02;;;;;;;11.30;89.17;98234.60;1722737;81;21023;-70
2022/10/31 00:16:22;;;;;;;42.85;19.35;;;;;;;11.29;89.42;98237.33;1727829;82;21454;-70
2022/10/31 00:18:55;;;;;;;42.50;19.65;;;;;;;11.30;89.22;98235.08;1720504;82;21012;-69
2022/10/31 00:21:23;;;;;;;45.90;19.87;;;;;;;11.35;89.46;98237.14;1716072;82;20972;-71
2022/10/31 00:23:49;;;;;;;43.73;19.55;;;;;;;11.34;89.21;98233.61;1721183;82;20965;-69
2022/10/31 00:26:17;;;;;;;42.30;21.40;;;;;;;11.37;89.33;98239.28;1712657;82;21526;-70
2022/10/31 00:28:44;;;;;;;43.85;20.02;;;;;;;11.39;88.99;98232.16;1714082;83;20993;-69
2022/10/31 00:31:12;;;;;;;43.35;22.02;;;;;;;11.40;89.06;98233.89;1724659;82;21051;-69
2022/10/31 00:33:41;;;;;;;42.45;20.95;;;;;;;11.44;89.13;98231.57;1732532;82;21466;-70
2022/10/31 00:36:11;;;;;;;42.70;20.10;;;;;;;11.42;88.70;98234.70;1724933;83;21431;-69
2022/10/31 00:38:39;;;;;;;43.98;20.80;;;;;;;11.38;88.48;98236.19;1712157;82;21494;-69
2022/10/31 00:41:05;;;;;;;43.68;20.10;;;;;;;11.37;88.32;98234.45;1731061;82;21023;-69
2022/10/31 00:43:33;;;;;;;43.38;20.05;;;;;;;11.32;88.52;98242.08;1723864;82;20992;-70
2022/10/31 00:45:59;;;;;;;45.48;19.27;;;;;;;11.28;88.58;98235.56;1736603;82;21000;-70
2022/10/31 00:48:25;;;;;;;44.98;20.75;;;;;;;11.21;88.51;98237.07;1724222;82;21043;-71
2022/10/31 00:50:53;;;;;;;48.05;20.40;;;;;;;11.19;88.62;98240.23;1729960;82;20964;-71
2022/10/31 00:53:20;;;;;;;44.95;20.30;;;;;;;11.17;88.34;98233.23;1725265;81;21726;-70
2022/10/31 00:55:47;;;;;;;47.20;19.98;;;;;;;11.09;88.63;98236.95;1726725;82;20964;-70
2022/10/31 00:58:13;;;;;;;46.50;21.75;;;;;;;11.05;88.67;98229.99;1728406;82;21028;-70
2022/10/31 01:00:40;;;;;;;44.40;21.20;;;;;;;11.03;88.68;98242.44;1723960;82;20988;-70
2022/10/31 01:03:07;;;;;;;48.17;21.90;;;;;;;10.99;88.35;98233.27;1731584;82;21008;-70
2022/10/31 01:05:38;;;;;;;50.30;22.32;;;;;;;10.94;89.00;98234.73;1735432;81;21032;-71
2022/10/31 01:08:05;;;;;;;44.20;20.85;;;;;;;10.89;88.83;98240.62;1740627;81;21509;-71
2022/10/31 01:10:33;;;;;;;46.40;20.05;;;;;;;10.86;89.05;98238.03;1733804;81;21020;-70
2022/10/31 01:13:00;;;;;;;49.40;22.13;;;;;;;10.83;88.98;98231.92;1739198;81;20996;-70
2022/10/31 01:15:26;;;;;;;48.30;21.07;;;;;;;10.79;90.07;98234.67;1727494;81;20996;-70
2022/10/31 01:17:53;;;;;;;48.00;20.57;;;;;;;10.73;89.70;98236.17;1732178;81;21000;-70
2022/10/31 01:20:19;;;;;;;43.85;20.60;;;;;;;10.70;89.58;98237.12;1732433;81;20964;-70
2022/10/31 01:22:46;;;;;;;44.13;19.57;;;;;;;10.64;90.04;98235.97;1732485;81;21036;-70
2022/10/31 01:25:13;;;;;;;40.73;18.95;;;;;;;10.63;90.63;98236.41;1723487;81;20979;-70
2022/10/31 01:27:39;;;;;;;42.70;19.00;;;;;;;10.63;90.27;98237.73;1722444;83;21421;-71
2022/10/31 01:30:08;;;;;;;34.13;17.10;;;;;;;10.62;90.45;98233.80;1732830;81;21000;-70
2022/10/31 01:32:35;;;;;;;38.30;17.52;;;;;;;10.64;90.18;98228.02;1747203;81;21721;-71
2022/10/31 01:35:02;;;;;;;37.88;16.87;;;;;;;10.66;90.32;98232.81;1732335;82;21020;-70
2022/10/31 01:37:30;;;;;;;41.73;18.00;;;;;;;10.65;90.57;98239.02;1732521;83;20980;-70
2022/10/31 01:39:57;;;;;;;39.65;17.77;;;;;;;10.67;90.42;98235.42;1728150;81;21389;-70
2022/10/31 01:42:24;;;;;;;41.98;17.87;;;;;;;10.66;90.79;98231.48;1746873;81;20981;-70
2022/10/31 01:44:58;;;;;;;45.05;18.35;;;;;;;10.62;91.23;98240.42;1732336;83;21084;-71
2022/10/31 01:47:45;;;;;;;42.65;19.32;;;;;;;10.56;91.31;98240.99;1712536;83;21479;-71
2022/10/31 01:50:17;;;;;;;42.67;17.73;;;;;;;10.53;91.18;98233.58;1732494;83;21003;-71
2022/10/31 01:52:50;;;;;;;42.78;16.80;;;;;;;10.52;91.27;98239.36;1731655;82;21004;-71
2022/10/31 01:55:22;;;;;;;45.25;17.52;;;;;;;10.55;91.06;98233.11;1732361;82;21063;-70
2022/10/31 01:57:53;;;;;;;45.40;18.85;;;;;;;10.57;91.22;98240.55;1731741;82;21024;-71
2022/10/31 02:00:21;;;;;;;43.95;18.75;;;;;;;10.58;91.19;98238.78;1736787;81;21024;-71
2022/10/31 02:02:50;;;;;;;44.13;19.10;;;;;;;10.58;91.53;98236.98;1732192;83;20992;-71
2022/10/31 02:05:24;;;;;;;41.63;16.97;;;;;;;10.58;91.30;98238.78;1722609;82;21479;-71
2022/10/31 02:07:59;;;;;;;45.43;18.32;;;;;;;10.61;91.26;98236.92;1700597;83;21056;-70
2022/10/31 02:10:33;;;;;;;41.40;17.32;;;;;;;10.64;90.95;98231.98;1719264;82;21472;-70
2022/10/31 02:13:04;;;;;;;47.83;18.12;;;;;;;10.63;91.06;98233.76;1719141;82;21037;-70
2022/10/31 02:15:33;;;;;;;41.70;17.48;;;;;;;10.62;91.15;98238.65;1714770;82;20973;-71
2022/10/31 02:18:00;;;;;;;42.98;18.67;;;;;;;10.56;91.74;98234.84;1704231;83;21028;-71
2022/10/31 02:20:32;;;;;;;43.45;18.27;;;;;;;10.52;91.22;98238.03;1709342;83;21013;-71
2022/10/31 02:23:22;;;;;;;40.00;18.90;;;;;;;10.50;91.37;98236.33;1715057;82;20993;-70
2022/10/31 02:26:20;;;;;;;43.17;18.37;;;;;;;10.45;91.96;98239.08;1715072;82;20961;-71
2022/10/31 02:29:23;;;;;;;46.53;18.92;;;;;;;10.43;91.52;98248.83;1733404;82;20997;-71
2022/10/31 02:31:55;;;;;;;43.50;20.60;;;;;;;10.38;92.17;98250.25;1719485;82;21458;-71
2022/10/31 02:34:46;;;;;;;42.15;17.70;;;;;;;10.29;91.86;98243.41;1685493;82;21048;-70
2022/10/31 02:37:49;;;;;;;44.93;18.32;;;;;;;10.24;92.47;98245.74;1713280;82;20993;-71
2022/10/31 02:40:29;;;;;;;49.38;18.57;;;;;;;10.17;92.16;98244.57;1714173;82;20997;-71
2022/10/31 02:43:27;;;;;;;53.20;20.32;;;;;;;10.14;92.42;98245.11;1712510;83;21024;-72
2022/10/31 02:46:30;;;;;;;46.02;17.98;;;;;;;10.08;92.59;98238.16;1713317;82;21016;-71
2022/10/31 02:49:03;;;;;;;47.65;19.85;;;;;;;10.03;92.73;98246.23;1714529;82;21019;-70
2022/10/31 02:51:29;;;;;;;53.20;21.35;;;;;;;10.00;92.67;98247.62;1714978;82;20977;-70
2022/10/31 02:53:56;;;;;;;52.38;19.98;;;;;;;9.96;92.96;98247.73;1713249;82;20977;-71
2022/10/31 02:56:22;;;;;;;57.25;20.72;;;;;;;9.94;92.81;98245.56;1720331;82;21403;-71
2022/10/31 02:58:57;;;;;;;55.85;19.98;;;;;;;9.93;92.97;98246.47;1713885;82;21024;-71
2022/10/31 03:01:47;;;;;;;46.92;20.70;;;;;;;9.93;92.81;98249.13;1713253;82;20993;-71
2022/10/31 03:04:34;;;;;;;53.60;20.15;;;;;;;9.92;93.08;98254.00;1725207;82;21030;-71
2022/10/31 03:07:36;;;;;;;53.17;21.37;;;;;;;9.91;92.77;98243.86;1689343;84;21524;-71
2022/10/31 03:10:32;;;;;;;48.75;19.60;;;;;;;9.89;93.88;98253.63;1706278;82;21020;-71
2022/10/31 03:13:07;;;;;;;54.42;20.15;;;;;;;9.87;93.57;98258.95;1719581;82;21462;-71
2022/10/31 03:15:38;;;;;;;52.98;21.87;;;;;;;9.82;94.17;98256.86;1715171;82;20981;-72
2022/10/31 03:18:28;;;;;;;51.45;21.20;;;;;;;9.80;94.74;98251.18;1710631;82;21407;-71
2022/10/31 03:21:14;;;;;;;47.40;18.65;;;;;;;9.79;93.92;98253.41;1713276;82;21371;-72
2022/10/31 03:23:45;;;;;;;46.25;18.85;;;;;;;9.79;94.24;98253.41;1723508;82;21547;-72
2022/10/31 03:26:16;;;;;;;41.95;17.75;;;;;;;9.76;94.65;98254.35;1724251;82;20977;-72
2022/10/31 03:28:57;;;;;;;46.13;18.52;;;;;;;9.75;95.83;98255.23;1716627;82;21449;-71
2022/10/31 03:31:29;;;;;;;43.85;18.15;;;;;;;9.77;95.44;98265.35;1712494;83;21454;-72
2022/10/31 03:34:00;;;;;;;45.83;18.87;;;;;;;9.82;94.64;98260.83;1717015;82;21096;-72
2022/10/31 03:36:33;;;;;;;44.30;18.65;;;;;;;9.86;95.78;98254.56;1715187;82;20969;-72
2022/10/31 03:39:04;;;;;;;41.58;17.07;;;;;;;9.89;95.24;98259.77;1720104;82;20984;-72
2022/10/31 03:41:35;;;;;;;37.58;18.12;;;;;;;9.90;95.02;98261.53;1715653;82;20965;-71
2022/10/31 03:44:07;;;;;;;47.08;18.25;;;;;;;9.91;94.72;98254.45;1719677;82;21005;-71
2022/10/31 03:46:34;;;;;;;37.65;16.25;;;;;;;9.97;95.03;98261.39;1714126;82;21462;-72
2022/10/31 03:49:02;;;;;;;41.18;17.95;;;;;;;10.02;94.42;98262.15;1717152;82;21127;-72
2022/10/31 03:51:48;;;;;;;39.00;16.48;;;;;;;10.06;94.63;98262.95;1668681;83;21006;-72
2022/10/31 03:54:30;;;;;;;40.78;15.80;;;;;;;10.08;94.77;98262.47;1667616;84;21404;-72
2022/10/31 03:57:02;;;;;;;39.50;16.23;;;;;;;10.09;94.54;98257.59;1683462;84;21044;-71
2022/10/31 03:59:45;;;;;;;41.28;17.40;;;;;;;10.10;94.41;98263.30;1663562;85;21451;-72
2022/10/31 04:02:18;;;;;;;42.90;17.65;;;;;;;10.15;94.42;98266.70;1717856;82;21097;-71
2022/10/31 04:04:47;;;;;;;34.75;15.23;;;;;;;10.15;94.47;98266.27;1715620;82;20996;-70
2022/10/31 04:07:15;;;;;;;41.60;18.10;;;;;;;10.17;94.37;98268.85;1722180;81;20957;-69
2022/10/31 04:09:45;;;;;;;42.08;17.67;;;;;;;10.17;94.32;98261.79;1728297;82;21012;-69
2022/10/31 04:12:15;;;;;;;38.48;16.62;;;;;;;10.18;94.09;98269.30;1721902;81;20968;-69
2022/10/31 04:14:58;;;;;;;45.95;17.50;;;;;;;10.17;93.96;98263.11;1723502;81;20996;-70
2022/10/31 04:17:29;;;;;;;38.53;17.15;;;;;;;10.15;93.97;98265.38;1726057;81;20960;-70
2022/10/31 04:19:56;;;;;;;40.25;16.87;;;;;;;10.13;93.74;98265.41;1695368;83;20984;-70
2022/10/31 04:22:22;;;;;;;38.23;16.95;;;;;;;10.11;93.70;98265.91;1691647;81;21012;-71
2022/10/31 04:24:49;;;;;;;35.43;15.95;;;;;;;10.10;93.98;98267.27;1727258;81;20980;-70
2022/10/31 04:27:16;;;;;;;35.00;16.45;;;;;;;10.08;94.21;98267.30;1723547;81;21075;-70
2022/10/31 04:29:43;;;;;;;39.95;17.02;;;;;;;10.07;94.43;98271.30;1725982;81;21014;-70
2022/10/31 04:32:10;;;;;;;36.15;16.50;;;;;;;10.08;94.09;98267.77;1726940;81;21065;-70
2022/10/31 04:34:37;;;;;;;39.85;16.77;;;;;;;10.09;94.52;98270.36;1731495;81;21030;-71
2022/10/31 04:37:04;;;;;;;36.05;16.25;;;;;;;10.09;93.98;98264.20;1744327;81;21024;-70
2022/10/31 04:39:32;;;;;;;39.65;17.57;;;;;;;10.06;94.33;98265.15;1731793;81;20965;-71
2022/10/31 04:42:01;;;;;;;37.30;16.45;;;;;;;10.07;94.20;98268.65;1719171;81;21438;-71
2022/10/31 04:44:27;;;;;;;39.90;17.10;;;;;;;10.06;94.23;98270.45;1729879;81;21008;-71
2022/10/31 04:46:54;;;;;;;37.75;16.65;;;;;;;10.02;94.02;98270.09;1745795;81;20949;-71
2022/10/31 04:49:21;;;;;;;41.68;18.07;;;;;;;9.98;94.11;98280.33;1722667;81;21372;-71
2022/10/31 04:51:47;;;;;;;40.48;17.85;;;;;;;9.92;94.81;98280.48;1720788;81;20957;-71
2022/10/31 04:54:14;;;;;;;40.50;17.23;;;;;;;9.87;94.22;98284.09;1723915;82;20969;-70
2022/10/31 04:56:58;;;;;;;34.10;15.80;;;;;;;9.85;94.52;98291.18;1727110;81;21028;-71
2022/10/31 04:59:25;;;;;;;36.98;16.07;;;;;;;9.79;94.86;98296.62;1724212;81;20988;-72
2022/10/31 05:01:53;;;;;;;40.23;18.90;;;;;;;9.76;94.48;98294.05;1721607;82;21045;-71
2022/10/31 05:04:24;;;;;;;40.73;17.57;;;;;;;9.74;94.52;98295.84;1725187;81;21337;-71
2022/10/31 05:06:51;;;;;;;38.75;17.42;;;;;;;9.73;94.17;98296.76;1728235;81;21011;-71
2022/10/31 05:09:19;;;;;;;38.80;18.30;;;;;;;9.73;94.27;98291.02;1732536;81;20968;-71
2022/10/31 05:11:46;;;;;;;40.33;17.48;;;;;;;9.74;94.51;98294.52;1746511;81;21508;-71
2022/10/31 05:14:14;;;;;;;44.05;19.10;;;;;;;9.73;94.33;98292.78;1733625;81;21453;-70
2022/10/31 05:16:59;;;;;;;38.73;17.15;;;;;;;9.72;94.69;98293.70;1732506;81;21370;-70
2022/10/31 05:19:34;;;;;;;39.55;17.55;;;;;;;9.69;94.76;98302.58;1727416;81;21107;-70
2022/10/31 05:22:19;;;;;;;46.88;18.25;;;;;;;9.67;94.47;98300.87;1731304;81;21028;-71
2022/10/31 05:24:45;;;;;;;43.55;18.02;;;;;;;9.64;94.70;98298.69;1732274;81;20980;-72
2022/10/31 05:27:13;;;;;;;40.65;16.95;;;;;;;9.62;95.14;98313.73;1728044;81;20946;-71
2022/10/31 05:29:39;;;;;;;38.38;17.10;;;;;;;9.61;94.88;98310.67;1732370;81;20996;-71
2022/10/31 05:32:06;;;;;;;45.00;18.20;;;;;;;9.59;95.05;98301.87;1732070;81;21446;-71
2022/10/31 05:34:51;;;;;;;38.95;17.70;;;;;;;9.57;95.74;98306.34;1732479;81;21004;-72
2022/10/31 05:37:36;;;;;;;46.10;18.12;;;;;;;9.57;95.19;98305.02;1735686;81;21042;-71
2022/10/31 05:40:07;;;;;;;34.23;15.63;;;;;;;9.58;94.89;98313.81;1728893;81;21008;-70
2022/10/31 05:42:34;;;;;;;32.95;15.72;;;;;;;9.57;95.44;98315.61;1732324;81;21417;-71
2022/10/31 05:45:01;;;;;;;40.35;15.48;;;;;;;9.56;96.19;98310.34;1732242;81;20996;-72
2022/10/31 05:47:33;;;;;;;31.80;14.78;;;;;;;9.58;95.42;98318.66;1726800;81;21020;-71
2022/10/31 05:50:10;;;;;;;33.25;12.82;;;;;;;9.61;95.73;98323.02;1637221;86;21398;-71
2022/10/31 05:52:45;;;;;;;32.63;15.05;;;;;;;9.64;95.78;98319.00;1727238;81;20985;-72
2022/10/31 05:55:22;;;;;;;32.58;14.90;;;;;;;9.68;95.82;98318.48;1738149;81;21045;-72
2022/10/31 05:57:50;;;;;;;31.10;15.18;;;;;;;9.72;96.12;98322.81;1723021;81;21075;-72
2022/10/31 06:00:19;;;;;;;29.80;14.65;;;;;;;9.76;95.69;98327.99;1729356;81;21027;-71
2022/10/31 06:02:48;;;;;;;29.10;13.95;;;;;;;9.79;95.80;98326.20;1719846;81;21167;-72
2022/10/31 06:05:22;;;;;;;25.12;12.93;;;;;;;9.84;95.64;98331.80;1714587;82;21063;-72
2022/10/31 06:07:49;;;;;;;25.55;13.90;;;;;;;9.88;95.40;98332.16;1756043;81;21095;-71
2022/10/31 06:10:16;;;;;;;26.82;13.05;;;;;;;9.90;95.29;98329.48;1755171;81;20987;-71
2022/10/31 06:12:43;;;;;;;25.75;13.50;;;;;;;9.97;95.33;98336.84;1727485;81;20976;-72
2022/10/31 06:15:15;;;;;;;23.12;13.05;;;;;;;10.03;95.15;98340.23;1756344;81;20964;-71
2022/10/31 06:17:43;;;;;;;25.43;11.53;;;;;;;10.05;94.95;98340.17;1751573;81;21030;-72
2022/10/31 06:20:17;;;;;;;29.85;13.03;;;;;;;10.04;94.71;98343.30;1755622;81;21039;-72
2022/10/31 06:22:45;;;;;;;25.08;12.58;;;;;;;10.06;94.72;98343.71;1749616;81;20976;-71
2022/10/31 06:25:12;;;;;;;31.97;14.55;;;;;;;10.12;94.86;98348.86;1757139;81;21402;-71
2022/10/31 06:27:41;;;;;;;31.60;15.30;;;;;;;10.22;94.84;98346.42;1750400;81;20960;-72
2022/10/31 06:30:11;;;;;;;29.12;13.75;;;;;;;10.26;94.54;98347.25;1731946;81;21007;-71
2022/10/31 06:32:37;;;;;;;25.55;14.90;;;;;;;10.28;94.47;98346.31;1729383;81;21351;-71
2022/10/31 06:35:05;;;;;;;28.90;13.53;;;;;;;10.34;94.37;98342.62;1704478;83;21011;-70
2022/10/31 06:37:32;;;;;;;21.97;11.70;;;;;;;10.42;94.31;98344.66;1731355;81;21121;-71
2022/10/31 06:40:00;;;;;;;19.60;10.48;;;;;;;10.45;93.84;98346.39;1718811;81;21020;-71
2022/10/31 06:42:27;;;;;;;25.08;13.70;;;;;;;10.46;93.65;98342.83;1742690;81;21473;-70
2022/10/31 06:44:54;;;;;;;27.02;12.18;;;;;;;10.47;93.86;98345.92;1727901;81;21378;-70
2022/10/31 06:47:22;;;;;;;20.65;10.95;;;;;;;10.46;93.42;98350.78;1699383;84;21020;-71
2022/10/31 06:49:53;;;;;;;21.17;11.85;;;;;;;10.45;93.21;98349.48;1716639;81;21020;-70
2022/10/31 06:52:23;;;;;;;20.95;11.30;;;;;;;10.45;93.36;98345.07;1731355;81;21561;-71
2022/10/31 06:54:50;;;;;;;22.58;11.22;;;;;;;10.48;93.06;98342.80;1742488;81;20925;-72
2022/10/31 06:57:18;;;;;;;23.35;12.68;;;;;;;10.46;92.81;98343.30;1706036;83;22245;-70
2022/10/31 06:59:45;;;;;;;21.62;10.70;;;;;;;10.46;92.60;98344.63;1729901;81;21114;-70
2022/10/31 07:02:16;;;;;;;19.25;10.78;;;;;;;10.47;92.45;98341.06;1702050;82;21064;-71
2022/10/31 07:04:43;;;;;;;20.10;11.03;;;;;;;10.45;92.11;98337.56;1708951;82;20964;-71
2022/10/31 07:07:11;;;;;;;20.23;11.00;;;;;;;10.47;92.24;98335.77;1715853;82;21020;-71
2022/10/31 07:09:38;;;;;;;16.67;10.20;;;;;;;10.50;92.09;98344.51;1704314;83;21086;-70
2022/10/31 07:12:05;;;;;;;18.30;10.25;;;;;;;10.53;92.19;98337.82;1676259;83;21001;-71
2022/10/31 07:14:33;;;;;;;20.80;11.20;;;;;;;10.58;91.99;98334.20;1713859;83;21442;-70
2022/10/31 07:17:00;;;;;;;18.87;11.20;;;;;;;10.63;92.00;98339.78;1713537;83;20989;-71
2022/10/31 07:19:29;;;;;;;15.38;9.73;;;;;;;10.65;90.78;98333.13;1714836;83;21001;-71
2022/10/31 07:21:57;;;;;;;16.07;9.50;;;;;;;10.64;91.13;98336.69;1714867;83;21024;-72
2022/10/31 07:24:25;;;;;;;17.05;9.73;;;;;;;10.67;91.23;98334.83;1717172;82;21028;-71
2022/10/31 07:26:57;;;;;;;18.77;9.50;;;;;;;10.69;89.71;98336.12;1717295;82;21032;-71
2022/10/31 07:29:24;;;;;;;16.87;9.40;;;;;;;10.66;89.99;98330.88;1674690;83;20996;-72
2022/10/31 07:31:51;;;;;;;17.73;10.50;;;;;;;10.63;89.66;98330.50;1716212;82;21482;-72
2022/10/31 07:34:19;;;;;;;20.17;9.85;;;;;;;10.59;89.67;98326.66;1716563;82;21430;-71
2022/10/31 07:36:55;;;;;;;19.00;10.35;;;;;;;10.55;89.64;98322.73;1716761;82;21024;-71
2022/10/31 07:39:21;;;;;;;17.65;10.45;;;;;;;10.54;89.94;98328.07;1715662;82;21035;-71
2022/10/31 07:41:48;;;;;;;18.50;9.65;;;;;;;10.56;89.90;98325.80;1715885;83;21040;-71
2022/10/31 07:44:16;;;;;;;18.75;9.80;;;;;;;10.61;90.14;98332.33;1716035;83;21021;-71
2022/10/31 07:47:01;;;;;;;18.37;9.73;;;;;;;10.64;89.68;98334.03;1717718;82;21005;-71
2022/10/31 07:49:36;;;;;;;;;;;;;;;10.68;89.62;98334.38;1681647;83;20949;-71
2022/10/31 07:52:13;;;;;;;17.73;9.03;;;;;;;10.69;89.70;98329.48;1715243;82;20167;-71
2022/10/31 07:54:58;;;;;;;16.93;9.83;;;;;;;10.74;89.89;98334.22;1715729;82;20984;-72
2022/10/31 07:57:25;;;;;;;20.50;11.48;;;;;;;10.80;89.41;98339.36;1714226;83;21352;-72
2022/10/31 07:59:52;;;;;;;18.77;11.12;;;;;;;10.81;89.28;98336.27;1713726;83;20992;-72
2022/10/31 08:02:18;;;;;;;16.17;10.20;;;;;;;10.85;89.41;98338.38;1715518;82;21063;-72
2022/10/31 08:04:48;;;;;;;17.85;9.35;;;;;;;10.90;89.39;98343.11;1714027;83;21009;-72
2022/10/31 08:07:37;;;;;;;18.40;10.03;;;;;;;10.96;89.24;98346.48;1697389;83;21036;-71
2022/10/31 08:10:05;;;;;;;17.02;10.08;;;;;;;11.01;89.04;98332.23;1696031;83;20989;-71
2022/10/31 08:12:31;;;;;;;17.55;10.23;;;;;;;11.01;88.75;98333.56;1679950;84;21028;-71
2022/10/31 08:14:58;;;;;;;16.73;10.15;;;;;;;11.02;88.60;98342.81;1682382;84;21012;-71
2022/10/31 08:17:25;;;;;;;17.77;9.83;;;;;;;11.04;88.52;98344.96;1683906;84;21032;-71
2022/10/31 08:19:55;;;;;;;20.60;10.65;;;;;;;11.10;88.48;98346.59;1686862;84;20977;-71
2022/10/31 08:22:24;;;;;;;17.27;10.15;;;;;;;11.11;88.06;98346.12;1684247;84;21094;-71
2022/10/31 08:24:50;;;;;;;18.85;10.35;;;;;;;11.17;87.99;98352.61;1686168;85;21017;-73
2022/10/31 08:27:17;;;;;;;20.77;10.90;;;;;;;11.17;87.67;98356.11;1684884;85;21008;-67
2022/10/31 08:29:44;;;;;;;23.92;13.65;;;;;;;11.16;87.43;98357.48;1685054;85;21476;-67
2022/10/31 08:32:10;;;;;;;18.65;10.55;;;;;;;11.22;88.16;98356.02;1686616;85;20973;-67
2022/10/31 08:34:45;;;;;;;;;;;;;;;11.37;88.12;98358.70;1656044;85;21363;-70
2022/10/31 08:37:30;;;;;;;18.77;10.18;;;;;;;11.49;87.97;98362.36;1686794;84;20147;-68
2022/10/31 08:39:56;;;;;;;20.55;11.15;;;;;;;11.58;87.39;98354.59;1685112;85;21084;-71
2022/10/31 08:42:25;;;;;;;18.75;10.82;;;;;;;11.64;86.87;98349.57;1691407;84;21025;-67
2022/10/31 08:44:57;;;;;;;22.70;10.45;;;;;;;11.66;86.71;98350.39;1688134;84;21021;-67
2022/10/31 08:47:27;;;;;;;20.65;10.68;;;;;;;11.77;86.67;98353.19;1681659;84;21088;-67
2022/10/31 08:49:56;;;;;;;20.02;10.40;;;;;;;11.82;86.06;98357.91;1673637;84;20982;-67
2022/10/31 08:52:26;;;;;;;19.27;10.08;;;;;;;11.85;86.54;98361.81;1679567;84;21040;-67
2022/10/31 08:54:54;;;;;;;24.20;11.20;;;;;;;11.95;86.23;98363.28;1676953;84;21439;-67
2022/10/31 08:57:40;;;;;;;19.77;11.70;;;;;;;12.05;86.08;98367.03;1684808;85;20994;-67
2022/10/31 09:00:08;;;;;;;22.93;11.60;;;;;;;12.13;86.06;98372.52;1687595;84;21398;-67
2022/10/31 09:02:38;;;;;;;23.05;12.18;;;;;;;12.20;85.79;98359.08;1670375;85;21056;-65
2022/10/31 09:05:05;;;;;;;21.85;12.58;;;;;;;12.24;85.27;98368.22;1685134;85;20945;-67
2022/10/31 09:07:34;;;;;;;22.42;11.83;;;;;;;12.27;85.30;98364.60;1673374;85;21049;-67
2022/10/31 09:10:00;;;;;;;24.80;11.97;;;;;;;12.31;84.51;98367.58;1679868;84;20946;-67
2022/10/31 09:12:27;;;;;;;25.85;13.58;;;;;;;12.26;84.75;98361.06;1683224;84;20966;-66
2022/10/31 09:15:00;;;;;;;27.32;13.48;;;;;;;12.30;84.59;98364.52;1622261;85;21024;-66
2022/10/31 09:17:29;;;;;;;25.35;13.60;;;;;;;12.36;84.61;98366.98;1682408;85;21008;-66
2022/10/31 09:20:11;;;;;;;27.48;15.60;;;;;;;12.44;83.60;98365.86;1632609;85;21042;-66
2022/10/31 09:22:38;;;;;;;29.32;16.10;;;;;;;12.39;83.25;98364.69;1680164;85;21045;-66
2022/10/31 09:25:06;;;;;;;30.40;15.85;;;;;;;12.41;82.94;98358.84;1681310;85;21051;-67
2022/10/31 09:27:33;;;;;;;28.70;16.15;;;;;;;12.42;83.08;98359.28;1683275;85;21021;-66
2022/10/31 09:30:02;;;;;;;28.73;15.43;;;;;;;12.48;83.41;98363.07;1683715;85;21009;-67
2022/10/31 09:32:29;;;;;;;29.98;15.85;;;;;;;12.50;82.87;98363.88;1683636;85;21041;-66
2022/10/31 09:34:56;;;;;;;28.85;15.60;;;;;;;12.56;83.13;98361.50;1688314;84;21040;-67
2022/10/31 09:37:23;;;;;;;32.50;16.67;;;;;;;12.65;82.94;98361.65;1694763;84;20954;-67
2022/10/31 09:39:51;;;;;;;35.23;16.90;;;;;;;12.67;82.54;98369.14;1697585;84;21005;-67
2022/10/31 09:42:36;;;;;;;32.05;17.40;;;;;;;12.74;82.85;98361.36;1700430;84;21076;-67
2022/10/31 09:45:46;;;;;;;32.95;16.97;;;;;;;12.86;82.66;98366.73;1681328;84;21021;-67
2022/10/31 09:48:32;;;;;;;34.43;18.32;;;;;;;12.96;82.75;98371.76;1683682;84;20980;-67
2022/10/31 09:51:15;;;;;;;34.85;19.48;;;;;;;12.96;81.86;98371.31;1681496;85;20973;-67
2022/10/31 09:54:00;;;;;;;45.45;23.10;;;;;;;12.87;81.89;98371.13;1665762;81;20999;-67
2022/10/31 09:56:28;;;;;;;43.08;22.70;;;;;;;12.93;82.25;98366.96;1727197;83;21438;-68
2022/10/31 09:59:00;;;;;;;50.65;25.35;;;;;;;12.96;81.70;98368.65;1702186;83;20988;-67
2022/10/31 10:01:51;;;;;;;51.05;24.45;;;;;;;12.96;81.30;98367.77;1726328;83;20985;-66
2022/10/31 10:04:41;;;;;;;50.08;25.62;;;;;;;12.97;81.25;98374.38;1723784;83;21012;-66
2022/10/31 10:07:35;;;;;;;48.35;23.83;;;;;;;12.97;81.68;98366.84;1721506;82;21080;-69
2022/10/31 10:10:51;;;;;;;48.33;22.87;;;;;;;12.96;80.83;98370.42;1677053;83;20992;-70
2022/10/31 10:13:56;;;;;;;48.30;23.52;;;;;;;12.93;81.18;98364.75;1704730;82;20973;-67
2022/10/31 10:17:04;;;;;;;49.90;23.87;;;;;;;12.94;81.05;98369.14;1718875;82;20993;-69
2022/10/31 10:20:05;;;;;;;42.23;22.15;;;;;;;12.93;80.90;98375.39;1718864;82;20981;-69
2022/10/31 10:22:58;;;;;;;43.20;22.35;;;;;;;12.76;80.81;98367.96;1717627;82;21024;-69
2022/10/31 10:25:33;;;;;;;49.90;23.10;;;;;;;12.74;81.58;98367.16;1713059;83;21041;-69
2022/10/31 10:28:20;;;;;;;43.38;21.60;;;;;;;12.81;81.40;98364.69;1672348;84;21491;-69
2022/10/31 10:31:00;;;;;;;49.35;22.37;;;;;;;12.86;81.67;98371.17;1748950;81;21039;-69
2022/10/31 10:33:44;;;;;;;43.20;21.33;;;;;;;12.92;81.51;98365.20;1746813;82;21055;-70
2022/10/31 10:36:40;;;;;;;48.40;22.98;;;;;;;12.93;81.32;98362.97;1699573;82;20980;-70
2022/10/31 10:39:23;;;;;;;45.08;21.17;;;;;;;12.95;81.14;98358.91;1712038;83;21052;-70
2022/10/31 10:47:38;;;;;;;53.80;23.92;;;;;;;13.07;81.21;98350.97;1719177;83;20988;-70
2022/10/31 10:50:19;;;;;;;46.33;22.98;;;;;;;13.06;80.67;98354.11;1709469;82;21027;-68
2022/10/31 10:53:02;;;;;;;47.25;20.92;;;;;;;13.07;80.74;98354.52;1713128;82;20989;-68
2022/10/31 10:55:57;;;;;;;44.13;22.62;;;;;;;13.09;80.38;98354.47;1719117;82;21053;-69
2022/10/31 10:58:24;;;;;;;43.87;22.58;;;;;;;13.16;80.98;98344.48;1718854;82;20997;-69
2022/10/31 11:00:53;;;;;;;47.08;22.30;;;;;;;13.23;80.29;98349.11;1707969;82;21016;-68
2022/10/31 11:03:20;;;;;;;46.90;21.52;;;;;;;13.18;80.19;98343.51;1713739;82;21454;-69
2022/10/31 11:06:00;;;;;;;46.28;22.50;;;;;;;13.19;80.32;98346.57;1717905;82;22146;-70
2022/10/31 11:08:34;;;;;;;106.40;52.83;;;;;;;13.30;80.60;98346.20;1723473;82;21458;-69
2022/10/31 11:11:12;;;;;;;54.23;26.80;;;;;;;13.36;80.04;98350.42;1730737;82;21494;-70
2022/10/31 11:13:42;;;;;;;46.05;21.07;;;;;;;13.43;79.66;98349.75;1731221;82;21068;-70
2022/10/31 11:16:42;;;;;;;42.30;21.45;;;;;;;13.50;80.17;98347.33;1727943;82;21047;-70
2022/10/31 11:19:26;;;;;;;45.15;21.87;;;;;;;13.52;79.69;98342.80;1732625;82;20972;-70
2022/10/31 11:21:53;;;;;;;44.58;21.35;;;;;;;13.47;79.96;98340.77;1746530;81;21043;-70
2022/10/31 11:24:26;;;;;;;48.25;22.20;;;;;;;13.55;79.84;98348.03;1755040;81;21406;-70
2022/10/31 11:27:16;;;;;;;49.70;23.65;;;;;;;13.58;79.95;98344.38;1735326;81;21060;-70
2022/10/31 11:29:43;;;;;;;46.53;22.52;;;;;;;13.71;79.87;98340.32;1726157;82;21058;-69
2022/10/31 11:32:23;;;;;;;47.85;21.90;;;;;;;13.86;80.10;98338.89;1732124;81;21012;-70
2022/10/31 11:35:01;;;;;;;42.85;22.45;;;;;;;13.85;79.41;98335.83;1728765;81;21019;-69
2022/10/31 11:37:35;;;;;;;42.60;21.42;;;;;;;13.85;79.43;98330.95;1732069;81;20996;-71
2022/10/31 11:40:06;;;;;;;47.60;22.50;;;;;;;13.92;79.40;98335.14;1729705;81;21012;-71
2022/10/31 11:42:39;;;;;;;43.68;21.85;;;;;;;13.95;78.98;98327.02;1732172;81;21031;-71
2022/10/31 11:45:17;;;;;;;51.05;22.80;;;;;;;13.91;78.05;98337.86;1729491;81;21060;-71
2022/10/31 11:47:50;;;;;;;48.98;23.70;;;;;;;13.85;78.39;98331.84;1728958;81;20999;-71
2022/10/31 11:50:40;;;;;;;41.02;22.20;;;;;;;13.92;78.67;98333.81;1730060;81;22098;-71
2022/10/31 11:53:17;;;;;;;49.70;24.23;;;;;;;13.91;77.52;98339.19;1728111;81;21383;-68